Nao Victoria — ECHH — position and weather

sailwx.info

Track history (hours):
 
Tides and Currents Weather Stations Pressure Air Temp Water Temp Dewpoint Dewpoint Depression Visibility Wind Speed Wind Dir Waves Ship Positions

Nao Victoria

Last reported at 2019-Apr-09 23:50 UTC. Time now 2019-Apr-25 16:43 UTC.
Position N 39°15' E 002°58'.
Warning: this ship's position is 15 days out of date.

Length 25 m; draft 3.2 m.

Type: Sailing vessel. MMSI: 224123770.

Date/timePositionNaut miles runAvg speedWind from/ knotsBaromVisibWave heightAir tempDewpointWater temp
2019-Apr-09 23:50N 39°15' E 002°58'4 6.5
2019-Apr-09 23:16N 39°16' E 002°53'2 6.4
2019-Apr-09 23:00N 39°16' E 002°51'3 6.4
2019-Apr-09 22:30N 39°17' E 002°47'2 4.3
2019-Apr-09 22:00N 39°18' E 002°45'2 4.3
2019-Apr-09 21:30N 39°20' E 002°44'2 4.5
2019-Apr-09 21:01N 39°22' E 002°43'2 4.7
2019-Apr-09 20:30N 39°25' E 002°42'3 5.1
2019-Apr-09 20:01N 39°27' E 002°41'3 5.2
2019-Apr-09 19:30N 39°30' E 002°40'3 5.2
2019-Apr-09 19:01N 39°32' E 002°39'2 3.3
2019-Apr-09 18:30N 39°33' E 002°38'0 0.0
2019-Apr-09 18:00N 39°33' E 002°38'  
2019-Apr-05 07:31N 39°33' E 002°38'0 0.1
2019-Apr-05 07:30N 39°33' E 002°38'0 0.0
2019-Apr-05 07:00N 39°33' E 002°38'0 0.0
2019-Apr-05 06:30N 39°33' E 002°38'1 1.0
2019-Apr-05 06:00N 39°33' E 002°38'0 0.0
2019-Apr-03 20:35N 39°33' E 002°38'0 0.0
2019-Apr-03 20:30N 39°33' E 002°38'0 0.0
2019-Apr-03 20:00N 39°33' E 002°38'0 0.0
2019-Apr-03 19:30N 39°33' E 002°38'0 0.0
2019-Apr-03 19:00N 39°33' E 002°38'0 0.0
2019-Apr-03 18:30N 39°33' E 002°38'0 0.0
2019-Apr-03 18:00N 39°33' E 002°38'1 1.6
2019-Apr-03 17:30N 39°33' E 002°39'2 5.0
2019-Apr-03 17:00N 39°31' E 002°41'2 3.9
2019-Apr-03 16:30N 39°30' E 002°40'1 2.1
2019-Apr-03 16:00N 39°29' E 002°40'1 1.5
2019-Apr-03 15:30N 39°28' E 002°39'1 1.9
2019-Apr-03 15:00N 39°27' E 002°39'2 3.0
2019-Apr-03 14:30N 39°25' E 002°39'2 3.3
2019-Apr-03 14:00N 39°24' E 002°38'0 0.5
2019-Apr-03 13:30N 39°24' E 002°38'2 3.7
2019-Apr-03 13:00N 39°26' E 002°38'2 4.0
2019-Apr-03 12:30N 39°28' E 002°38'2 4.1
2019-Apr-03 12:00N 39°30' E 002°38'2 4.3
2019-Apr-03 11:30N 39°32' E 002°38'1 2.0
2019-Apr-03 11:00N 39°33' E 002°38'0 0.0
2019-Apr-02 16:46N 39°33' E 002°38'0 0.0
2019-Apr-02 16:30N 39°33' E 002°38'0 0.0
2019-Apr-02 16:00N 39°33' E 002°38'0 0.0
2019-Apr-02 15:30N 39°33' E 002°38'0 0.0
2019-Apr-02 15:01N 39°33' E 002°38'0 0.0
2019-Apr-02 14:30N 39°33' E 002°38'1 1.4
2019-Apr-02 14:00N 39°33' E 002°39'3 5.5
2019-Apr-02 13:30N 39°30' E 002°38'3 6.2
2019-Apr-02 13:00N 39°27' E 002°37'3 6.2
2019-Apr-02 12:30N 39°25' E 002°33'4 6.8
2019-Apr-02 11:53N 39°24' E 002°28'  
Track history (hours):
 
Tides and Currents Weather Stations Pressure Air Temp Water Temp Dewpoint Dewpoint Depression Visibility Wind Speed Wind Dir Waves Ship Positions

Nao Victoria

Last reported at 2019-Apr-09 23:50 UTC. Time now 2019-Apr-25 16:43 UTC.
Position N 39°15' E 002°58'.
Warning: this ship's position is 15 days out of date.

Length 25 m; draft 3.2 m.

Type: Sailing vessel. MMSI: 224123770.

Date/timePositionNaut miles runAvg speedWind from/ knotsBaromVisibWave heightAir tempDewpointWater temp
2019-Apr-09 23:50N 39°15' E 002°58'4 6.5
2019-Apr-09 23:16N 39°16' E 002°53'2 6.4
2019-Apr-09 23:00N 39°16' E 002°51'3 6.4
2019-Apr-09 22:30N 39°17' E 002°47'2 4.3
2019-Apr-09 22:00N 39°18' E 002°45'2 4.3
2019-Apr-09 21:30N 39°20' E 002°44'2 4.5
2019-Apr-09 21:01N 39°22' E 002°43'2 4.7
2019-Apr-09 20:30N 39°25' E 002°42'3 5.1
2019-Apr-09 20:01N 39°27' E 002°41'3 5.2
2019-Apr-09 19:30N 39°30' E 002°40'3 5.2
2019-Apr-09 19:01N 39°32' E 002°39'2 3.3
2019-Apr-09 18:30N 39°33' E 002°38'0 0.0
2019-Apr-09 18:00N 39°33' E 002°38'  
2019-Apr-05 07:31N 39°33' E 002°38'0 0.1
2019-Apr-05 07:30N 39°33' E 002°38'0 0.0
2019-Apr-05 07:00N 39°33' E 002°38'0 0.0
2019-Apr-05 06:30N 39°33' E 002°38'1 1.0
2019-Apr-05 06:00N 39°33' E 002°38'0 0.0
2019-Apr-03 20:35N 39°33' E 002°38'0 0.0
2019-Apr-03 20:30N 39°33' E 002°38'0 0.0
2019-Apr-03 20:00N 39°33' E 002°38'0 0.0
2019-Apr-03 19:30N 39°33' E 002°38'0 0.0
2019-Apr-03 19:00N 39°33' E 002°38'0 0.0
2019-Apr-03 18:30N 39°33' E 002°38'0 0.0
2019-Apr-03 18:00N 39°33' E 002°38'1 1.6
2019-Apr-03 17:30N 39°33' E 002°39'2 5.0
2019-Apr-03 17:00N 39°31' E 002°41'2 3.9
2019-Apr-03 16:30N 39°30' E 002°40'1 2.1
2019-Apr-03 16:00N 39°29' E 002°40'1 1.5
2019-Apr-03 15:30N 39°28' E 002°39'1 1.9
2019-Apr-03 15:00N 39°27' E 002°39'2 3.0
2019-Apr-03 14:30N 39°25' E 002°39'2 3.3
2019-Apr-03 14:00N 39°24' E 002°38'0 0.5
2019-Apr-03 13:30N 39°24' E 002°38'2 3.7
2019-Apr-03 13:00N 39°26' E 002°38'2 4.0
2019-Apr-03 12:30N 39°28' E 002°38'2 4.1
2019-Apr-03 12:00N 39°30' E 002°38'2 4.3
2019-Apr-03 11:30N 39°32' E 002°38'1 2.0
2019-Apr-03 11:00N 39°33' E 002°38'0 0.0
2019-Apr-02 16:46N 39°33' E 002°38'0 0.0
2019-Apr-02 16:30N 39°33' E 002°38'0 0.0
2019-Apr-02 16:00N 39°33' E 002°38'0 0.0
2019-Apr-02 15:30N 39°33' E 002°38'0 0.0
2019-Apr-02 15:01N 39°33' E 002°38'0 0.0
2019-Apr-02 14:30N 39°33' E 002°38'1 1.4
2019-Apr-02 14:00N 39°33' E 002°39'3 5.5
2019-Apr-02 13:30N 39°30' E 002°38'3 6.2
2019-Apr-02 13:00N 39°27' E 002°37'3 6.2
2019-Apr-02 12:30N 39°25' E 002°33'4 6.8
2019-Apr-02 11:53N 39°24' E 002°28'  

Dump ship's entire track history